sensor_id;sensor_type;location;lat;lon;timestamp;P1;durP1;ratioP1;P2;durP2;ratioP2
45136;SDS011;30894;51.740;19.498;2023-03-01T00:01:39;35.53;;;16.27;;
45136;SDS011;30894;51.740;19.498;2023-03-01T00:04:06;53.28;;;20.63;;
45136;SDS011;30894;51.740;19.498;2023-03-01T00:06:32;50.90;;;21.60;;
45136;SDS011;30894;51.740;19.498;2023-03-01T00:08:58;29.88;;;14.65;;
45136;SDS011;30894;51.740;19.498;2023-03-01T00:11:29;47.67;;;18.60;;
45136;SDS011;30894;51.740;19.498;2023-03-01T00:13:58;23.77;;;10.97;;
45136;SDS011;30894;51.740;19.498;2023-03-01T00:16:27;32.97;;;17.52;;
45136;SDS011;30894;51.740;19.498;2023-03-01T00:18:56;32.50;;;12.52;;
45136;SDS011;30894;51.740;19.498;2023-03-01T00:21:23;26.77;;;15.80;;
45136;SDS011;30894;51.740;19.498;2023-03-01T00:23:50;25.02;;;16.27;;
45136;SDS011;30894;51.740;19.498;2023-03-01T00:26:18;27.48;;;14.93;;
45136;SDS011;30894;51.740;19.498;2023-03-01T00:28:46;39.00;;;18.30;;
45136;SDS011;30894;51.740;19.498;2023-03-01T00:31:19;35.90;;;16.85;;
45136;SDS011;30894;51.740;19.498;2023-03-01T00:33:54;24.88;;;13.63;;
45136;SDS011;30894;51.740;19.498;2023-03-01T00:36:22;36.92;;;15.15;;
45136;SDS011;30894;51.740;19.498;2023-03-01T00:38:52;44.92;;;18.17;;
45136;SDS011;30894;51.740;19.498;2023-03-01T00:41:20;31.05;;;15.30;;
45136;SDS011;30894;51.740;19.498;2023-03-01T00:43:48;37.63;;;16.77;;
45136;SDS011;30894;51.740;19.498;2023-03-01T00:46:17;26.52;;;14.85;;
45136;SDS011;30894;51.740;19.498;2023-03-01T00:48:46;31.25;;;14.77;;
45136;SDS011;30894;51.740;19.498;2023-03-01T00:51:20;20.27;;;11.10;;
45136;SDS011;30894;51.740;19.498;2023-03-01T00:53:54;22.42;;;11.88;;
45136;SDS011;30894;51.740;19.498;2023-03-01T00:56:24;25.33;;;13.15;;
45136;SDS011;30894;51.740;19.498;2023-03-01T00:58:51;26.23;;;14.48;;
45136;SDS011;30894;51.740;19.498;2023-03-01T01:01:19;27.50;;;10.35;;
45136;SDS011;30894;51.740;19.498;2023-03-01T01:03:54;32.30;;;13.00;;
45136;SDS011;30894;51.740;19.498;2023-03-01T01:06:32;20.38;;;11.70;;
45136;SDS011;30894;51.740;19.498;2023-03-01T01:09:03;27.98;;;11.60;;
45136;SDS011;30894;51.740;19.498;2023-03-01T01:11:32;20.00;;;10.75;;
45136;SDS011;30894;51.740;19.498;2023-03-01T01:14:00;32.15;;;15.15;;
45136;SDS011;30894;51.740;19.498;2023-03-01T01:16:27;26.02;;;11.20;;
45136;SDS011;30894;51.740;19.498;2023-03-01T01:18:58;32.05;;;12.63;;
45136;SDS011;30894;51.740;19.498;2023-03-01T01:21:27;43.17;;;13.93;;
45136;SDS011;30894;51.740;19.498;2023-03-01T01:23:54;28.08;;;13.98;;
45136;SDS011;30894;51.740;19.498;2023-03-01T01:26:23;19.77;;;8.35;;
45136;SDS011;30894;51.740;19.498;2023-03-01T01:28:53;26.65;;;14.45;;
45136;SDS011;30894;51.740;19.498;2023-03-01T01:31:21;22.58;;;10.60;;
45136;SDS011;30894;51.740;19.498;2023-03-01T01:33:51;29.38;;;13.27;;
45136;SDS011;30894;51.740;19.498;2023-03-01T01:36:18;38.63;;;14.93;;
45136;SDS011;30894;51.740;19.498;2023-03-01T01:38:45;27.45;;;12.27;;
45136;SDS011;30894;51.740;19.498;2023-03-01T01:41:13;36.88;;;14.43;;
45136;SDS011;30894;51.740;19.498;2023-03-01T01:43:45;30.13;;;12.45;;
45136;SDS011;30894;51.740;19.498;2023-03-01T01:46:35;35.70;;;13.02;;
45136;SDS011;30894;51.740;19.498;2023-03-01T01:49:19;37.72;;;13.43;;
45136;SDS011;30894;51.740;19.498;2023-03-01T01:52:35;29.00;;;9.32;;
45136;SDS011;30894;51.740;19.498;2023-03-01T01:55:03;37.75;;;11.10;;
45136;SDS011;30894;51.740;19.498;2023-03-01T01:57:49;27.40;;;10.32;;
45136;SDS011;30894;51.740;19.498;2023-03-01T02:00:22;19.13;;;10.18;;
45136;SDS011;30894;51.740;19.498;2023-03-01T02:02:54;16.13;;;8.60;;
45136;SDS011;30894;51.740;19.498;2023-03-01T02:05:31;17.52;;;9.13;;
45136;SDS011;30894;51.740;19.498;2023-03-01T02:08:14;15.60;;;9.50;;
45136;SDS011;30894;51.740;19.498;2023-03-01T02:10:45;13.23;;;9.20;;
45136;SDS011;30894;51.740;19.498;2023-03-01T02:13:13;48.55;;;10.98;;
45136;SDS011;30894;51.740;19.498;2023-03-01T02:15:44;21.60;;;12.43;;
45136;SDS011;30894;51.740;19.498;2023-03-01T02:18:12;23.65;;;14.32;;
45136;SDS011;30894;51.740;19.498;2023-03-01T02:23:34;19.13;;;11.77;;
45136;SDS011;30894;51.740;19.498;2023-03-01T02:28:41;31.90;;;11.50;;
45136;SDS011;30894;51.740;19.498;2023-03-01T02:31:11;11.20;;;3.22;;
45136;SDS011;30894;51.740;19.498;2023-03-01T02:34:01;10.80;;;7.70;;
45136;SDS011;30894;51.740;19.498;2023-03-01T02:36:38;29.67;;;13.32;;
45136;SDS011;30894;51.740;19.498;2023-03-01T02:39:12;28.77;;;12.95;;
45136;SDS011;30894;51.740;19.498;2023-03-01T02:41:46;20.02;;;9.30;;
45136;SDS011;30894;51.740;19.498;2023-03-01T02:44:15;11.23;;;6.03;;
45136;SDS011;30894;51.740;19.498;2023-03-01T02:46:45;17.17;;;6.78;;
45136;SDS011;30894;51.740;19.498;2023-03-01T02:54:54;25.15;;;8.95;;
45136;SDS011;30894;51.740;19.498;2023-03-01T02:57:39;10.93;;;8.40;;
45136;SDS011;30894;51.740;19.498;2023-03-01T03:00:12;28.58;;;9.40;;
45136;SDS011;30894;51.740;19.498;2023-03-01T03:02:50;14.80;;;7.68;;
45136;SDS011;30894;51.740;19.498;2023-03-01T03:05:19;11.65;;;5.85;;
45136;SDS011;30894;51.740;19.498;2023-03-01T03:07:50;11.05;;;5.55;;
45136;SDS011;30894;51.740;19.498;2023-03-01T03:10:19;4.15;;;3.75;;
45136;SDS011;30894;51.740;19.498;2023-03-01T03:12:55;27.90;;;10.05;;
45136;SDS011;30894;51.740;19.498;2023-03-01T03:15:25;18.33;;;6.72;;
45136;SDS011;30894;51.740;19.498;2023-03-01T03:17:55;14.48;;;4.55;;
45136;SDS011;30894;51.740;19.498;2023-03-01T03:20:24;11.55;;;6.32;;
45136;SDS011;30894;51.740;19.498;2023-03-01T03:22:55;18.10;;;7.10;;
45136;SDS011;30894;51.740;19.498;2023-03-01T03:25:24;12.40;;;7.85;;
45136;SDS011;30894;51.740;19.498;2023-03-01T03:27:52;20.33;;;7.53;;
45136;SDS011;30894;51.740;19.498;2023-03-01T03:30:22;14.40;;;8.43;;
45136;SDS011;30894;51.740;19.498;2023-03-01T03:32:52;9.43;;;6.95;;
45136;SDS011;30894;51.740;19.498;2023-03-01T03:35:25;12.02;;;6.78;;
45136;SDS011;30894;51.740;19.498;2023-03-01T03:38:00;11.13;;;6.45;;
45136;SDS011;30894;51.740;19.498;2023-03-01T03:40:35;17.15;;;6.90;;
45136;SDS011;30894;51.740;19.498;2023-03-01T03:43:06;15.82;;;6.80;;
45136;SDS011;30894;51.740;19.498;2023-03-01T03:45:37;9.80;;;5.88;;
45136;SDS011;30894;51.740;19.498;2023-03-01T03:48:07;25.23;;;7.30;;
45136;SDS011;30894;51.740;19.498;2023-03-01T03:50:35;13.15;;;6.47;;
45136;SDS011;30894;51.740;19.498;2023-03-01T03:53:06;7.95;;;6.70;;
45136;SDS011;30894;51.740;19.498;2023-03-01T03:55:37;11.55;;;6.00;;
45136;SDS011;30894;51.740;19.498;2023-03-01T03:58:05;6.95;;;5.72;;
45136;SDS011;30894;51.740;19.498;2023-03-01T04:00:44;22.60;;;8.05;;
45136;SDS011;30894;51.740;19.498;2023-03-01T04:03:15;12.05;;;5.63;;
45136;SDS011;30894;51.740;19.498;2023-03-01T04:05:44;12.65;;;8.57;;
45136;SDS011;30894;51.740;19.498;2023-03-01T04:08:12;10.20;;;7.13;;
45136;SDS011;30894;51.740;19.498;2023-03-01T04:10:39;20.45;;;8.63;;
45136;SDS011;30894;51.740;19.498;2023-03-01T04:13:11;14.25;;;7.15;;
45136;SDS011;30894;51.740;19.498;2023-03-01T04:15:40;23.08;;;10.38;;
45136;SDS011;30894;51.740;19.498;2023-03-01T04:18:08;13.90;;;6.05;;
45136;SDS011;30894;51.740;19.498;2023-03-01T04:20:38;8.50;;;4.25;;
45136;SDS011;30894;51.740;19.498;2023-03-01T04:23:06;7.82;;;6.50;;
45136;SDS011;30894;51.740;19.498;2023-03-01T04:25:54;11.25;;;4.78;;
45136;SDS011;30894;51.740;19.498;2023-03-01T04:28:31;9.38;;;6.10;;
45136;SDS011;30894;51.740;19.498;2023-03-01T04:31:02;8.52;;;5.35;;
45136;SDS011;30894;51.740;19.498;2023-03-01T04:33:48;25.45;;;7.47;;
45136;SDS011;30894;51.740;19.498;2023-03-01T04:36:17;10.00;;;7.05;;
45136;SDS011;30894;51.740;19.498;2023-03-01T04:38:47;9.52;;;6.50;;
45136;SDS011;30894;51.740;19.498;2023-03-01T04:41:15;14.93;;;7.50;;
45136;SDS011;30894;51.740;19.498;2023-03-01T04:43:43;12.10;;;5.10;;
45136;SDS011;30894;51.740;19.498;2023-03-01T04:46:13;20.13;;;7.10;;
45136;SDS011;30894;51.740;19.498;2023-03-01T04:48:44;14.50;;;6.75;;
45136;SDS011;30894;51.740;19.498;2023-03-01T04:51:11;13.60;;;5.95;;
45136;SDS011;30894;51.740;19.498;2023-03-01T04:53:41;8.02;;;5.40;;
45136;SDS011;30894;51.740;19.498;2023-03-01T04:56:08;16.13;;;6.93;;
45136;SDS011;30894;51.740;19.498;2023-03-01T04:58:34;15.60;;;8.15;;
45136;SDS011;30894;51.740;19.498;2023-03-01T05:01:00;16.98;;;4.57;;
45136;SDS011;30894;51.740;19.498;2023-03-01T05:03:41;6.05;;;5.15;;
45136;SDS011;30894;51.740;19.498;2023-03-01T05:06:19;10.20;;;6.07;;
45136;SDS011;30894;51.740;19.498;2023-03-01T05:08:47;15.05;;;6.28;;
45136;SDS011;30894;51.740;19.498;2023-03-01T05:11:13;8.52;;;6.20;;
45136;SDS011;30894;51.740;19.498;2023-03-01T05:13:40;17.10;;;8.13;;
45136;SDS011;30894;51.740;19.498;2023-03-01T05:16:08;5.20;;;4.45;;
45136;SDS011;30894;51.740;19.498;2023-03-01T05:18:38;10.07;;;5.47;;
45136;SDS011;30894;51.740;19.498;2023-03-01T05:21:08;8.73;;;4.30;;
45136;SDS011;30894;51.740;19.498;2023-03-01T05:23:38;8.60;;;5.68;;
45136;SDS011;30894;51.740;19.498;2023-03-01T05:26:05;6.43;;;4.78;;
45136;SDS011;30894;51.740;19.498;2023-03-01T05:28:32;11.40;;;5.10;;
45136;SDS011;30894;51.740;19.498;2023-03-01T05:30:58;16.23;;;6.70;;
45136;SDS011;30894;51.740;19.498;2023-03-01T05:33:26;15.52;;;6.13;;
45136;SDS011;30894;51.740;19.498;2023-03-01T05:35:53;11.65;;;6.13;;
45136;SDS011;30894;51.740;19.498;2023-03-01T05:38:19;14.63;;;9.38;;
45136;SDS011;30894;51.740;19.498;2023-03-01T05:40:48;13.68;;;6.80;;
45136;SDS011;30894;51.740;19.498;2023-03-01T05:43:19;14.88;;;7.32;;
45136;SDS011;30894;51.740;19.498;2023-03-01T05:45:48;10.77;;;6.45;;
45136;SDS011;30894;51.740;19.498;2023-03-01T05:48:14;8.77;;;5.03;;
45136;SDS011;30894;51.740;19.498;2023-03-01T05:50:45;8.90;;;6.60;;
45136;SDS011;30894;51.740;19.498;2023-03-01T05:53:15;16.58;;;7.15;;
45136;SDS011;30894;51.740;19.498;2023-03-01T05:55:46;15.95;;;7.97;;
45136;SDS011;30894;51.740;19.498;2023-03-01T05:58:16;11.63;;;6.70;;
45136;SDS011;30894;51.740;19.498;2023-03-01T06:00:47;8.00;;;4.35;;
45136;SDS011;30894;51.740;19.498;2023-03-01T06:03:15;21.83;;;9.20;;
45136;SDS011;30894;51.740;19.498;2023-03-01T06:05:43;12.63;;;8.07;;
45136;SDS011;30894;51.740;19.498;2023-03-01T06:08:13;15.48;;;7.78;;
45136;SDS011;30894;51.740;19.498;2023-03-01T06:10:40;19.92;;;11.05;;
45136;SDS011;30894;51.740;19.498;2023-03-01T06:13:13;22.55;;;11.13;;
45136;SDS011;30894;51.740;19.498;2023-03-01T06:15:40;12.45;;;8.70;;
45136;SDS011;30894;51.740;19.498;2023-03-01T06:18:10;29.67;;;12.05;;
45136;SDS011;30894;51.740;19.498;2023-03-01T06:20:36;16.42;;;7.50;;
45136;SDS011;30894;51.740;19.498;2023-03-01T06:23:03;10.90;;;6.65;;
45136;SDS011;30894;51.740;19.498;2023-03-01T06:25:31;24.27;;;9.95;;
45136;SDS011;30894;51.740;19.498;2023-03-01T06:27:59;10.43;;;7.10;;
45136;SDS011;30894;51.740;19.498;2023-03-01T06:30:25;30.23;;;10.82;;
45136;SDS011;30894;51.740;19.498;2023-03-01T06:32:52;17.17;;;9.52;;
45136;SDS011;30894;51.740;19.498;2023-03-01T06:35:25;16.92;;;8.18;;
45136;SDS011;30894;51.740;19.498;2023-03-01T06:37:55;15.90;;;7.50;;
45136;SDS011;30894;51.740;19.498;2023-03-01T06:40:25;19.77;;;8.77;;
45136;SDS011;30894;51.740;19.498;2023-03-01T06:42:52;19.08;;;9.13;;
45136;SDS011;30894;51.740;19.498;2023-03-01T06:45:23;22.75;;;11.13;;
45136;SDS011;30894;51.740;19.498;2023-03-01T06:47:50;19.90;;;10.07;;
45136;SDS011;30894;51.740;19.498;2023-03-01T06:50:16;29.67;;;13.00;;
45136;SDS011;30894;51.740;19.498;2023-03-01T06:52:47;19.08;;;8.52;;
45136;SDS011;30894;51.740;19.498;2023-03-01T06:55:15;21.38;;;10.80;;
45136;SDS011;30894;51.740;19.498;2023-03-01T06:57:41;18.75;;;9.57;;
45136;SDS011;30894;51.740;19.498;2023-03-01T07:00:08;17.83;;;11.18;;
45136;SDS011;30894;51.740;19.498;2023-03-01T07:02:39;25.27;;;10.25;;
45136;SDS011;30894;51.740;19.498;2023-03-01T07:05:06;27.48;;;12.43;;
45136;SDS011;30894;51.740;19.498;2023-03-01T07:07:32;23.27;;;11.65;;
45136;SDS011;30894;51.740;19.498;2023-03-01T07:09:58;35.08;;;12.48;;
45136;SDS011;30894;51.740;19.498;2023-03-01T07:12:25;40.17;;;16.05;;
45136;SDS011;30894;51.740;19.498;2023-03-01T07:14:52;26.50;;;13.63;;
45136;SDS011;30894;51.740;19.498;2023-03-01T07:17:24;27.98;;;12.38;;
45136;SDS011;30894;51.740;19.498;2023-03-01T07:19:52;32.45;;;10.45;;
45136;SDS011;30894;51.740;19.498;2023-03-01T07:22:18;24.00;;;12.35;;
45136;SDS011;30894;51.740;19.498;2023-03-01T07:24:45;41.63;;;14.93;;
45136;SDS011;30894;51.740;19.498;2023-03-01T07:27:15;39.53;;;14.52;;
45136;SDS011;30894;51.740;19.498;2023-03-01T07:29:44;35.90;;;17.42;;
45136;SDS011;30894;51.740;19.498;2023-03-01T07:32:12;44.40;;;19.17;;
45136;SDS011;30894;51.740;19.498;2023-03-01T07:34:44;42.47;;;19.88;;
45136;SDS011;30894;51.740;19.498;2023-03-01T07:37:19;61.58;;;23.70;;
45136;SDS011;30894;51.740;19.498;2023-03-01T07:39:57;48.75;;;18.98;;
45136;SDS011;30894;51.740;19.498;2023-03-01T07:42:29;48.40;;;19.73;;
45136;SDS011;30894;51.740;19.498;2023-03-01T07:45:10;49.40;;;21.10;;
45136;SDS011;30894;51.740;19.498;2023-03-01T07:47:39;50.53;;;18.30;;
45136;SDS011;30894;51.740;19.498;2023-03-01T07:50:18;42.03;;;18.40;;
45136;SDS011;30894;51.740;19.498;2023-03-01T07:52:45;40.00;;;17.05;;
45136;SDS011;30894;51.740;19.498;2023-03-01T07:55:20;47.33;;;17.30;;
45136;SDS011;30894;51.740;19.498;2023-03-01T07:57:49;34.83;;;13.55;;
45136;SDS011;30894;51.740;19.498;2023-03-01T08:00:19;41.78;;;15.38;;
45136;SDS011;30894;51.740;19.498;2023-03-01T08:02:50;32.20;;;14.15;;
45136;SDS011;30894;51.740;19.498;2023-03-01T08:05:27;46.45;;;15.20;;
45136;SDS011;30894;51.740;19.498;2023-03-01T08:07:57;33.53;;;12.55;;
45136;SDS011;30894;51.740;19.498;2023-03-01T08:10:27;29.80;;;14.00;;
45136;SDS011;30894;51.740;19.498;2023-03-01T08:12:53;29.75;;;11.57;;
45136;SDS011;30894;51.740;19.498;2023-03-01T08:15:25;31.23;;;11.65;;
45136;SDS011;30894;51.740;19.498;2023-03-01T08:17:56;34.38;;;12.75;;
45136;SDS011;30894;51.740;19.498;2023-03-01T08:20:27;42.60;;;13.80;;
45136;SDS011;30894;51.740;19.498;2023-03-01T08:23:03;31.40;;;12.55;;
45136;SDS011;30894;51.740;19.498;2023-03-01T08:25:32;37.05;;;12.55;;
45136;SDS011;30894;51.740;19.498;2023-03-01T08:27:58;32.88;;;13.52;;
45136;SDS011;30894;51.740;19.498;2023-03-01T08:30:29;29.52;;;13.05;;
45136;SDS011;30894;51.740;19.498;2023-03-01T08:33:07;37.13;;;12.93;;
45136;SDS011;30894;51.740;19.498;2023-03-01T08:35:40;32.55;;;12.95;;
45136;SDS011;30894;51.740;19.498;2023-03-01T08:38:15;34.75;;;13.65;;
45136;SDS011;30894;51.740;19.498;2023-03-01T08:43:09;29.15;;;11.90;;
45136;SDS011;30894;51.740;19.498;2023-03-01T08:45:38;30.48;;;12.57;;
45136;SDS011;30894;51.740;19.498;2023-03-01T08:48:16;34.20;;;11.70;;
45136;SDS011;30894;51.740;19.498;2023-03-01T08:50:42;34.25;;;11.77;;
45136;SDS011;30894;51.740;19.498;2023-03-01T08:53:17;30.00;;;12.10;;
45136;SDS011;30894;51.740;19.498;2023-03-01T08:55:51;31.05;;;11.90;;
45136;SDS011;30894;51.740;19.498;2023-03-01T08:58:20;23.83;;;10.82;;
45136;SDS011;30894;51.740;19.498;2023-03-01T09:00:53;29.52;;;11.02;;
45136;SDS011;30894;51.740;19.498;2023-03-01T09:03:26;29.48;;;10.73;;
45136;SDS011;30894;51.740;19.498;2023-03-01T09:05:59;23.63;;;10.23;;
45136;SDS011;30894;51.740;19.498;2023-03-01T09:08:43;27.13;;;10.65;;
45136;SDS011;30894;51.740;19.498;2023-03-01T09:11:16;20.33;;;8.55;;
45136;SDS011;30894;51.740;19.498;2023-03-01T09:13:45;23.77;;;9.95;;
45136;SDS011;30894;51.740;19.498;2023-03-01T09:16:17;23.52;;;9.35;;
45136;SDS011;30894;51.740;19.498;2023-03-01T09:18:45;20.58;;;8.27;;
45136;SDS011;30894;51.740;19.498;2023-03-01T09:21:19;17.60;;;8.00;;
45136;SDS011;30894;51.740;19.498;2023-03-01T09:23:51;23.77;;;9.10;;
45136;SDS011;30894;51.740;19.498;2023-03-01T09:26:21;24.30;;;9.02;;
45136;SDS011;30894;51.740;19.498;2023-03-01T09:28:56;22.08;;;8.63;;
45136;SDS011;30894;51.740;19.498;2023-03-01T09:31:25;19.25;;;8.40;;
45136;SDS011;30894;51.740;19.498;2023-03-01T09:33:52;20.95;;;9.57;;
45136;SDS011;30894;51.740;19.498;2023-03-01T09:36:29;21.95;;;8.73;;
45136;SDS011;30894;51.740;19.498;2023-03-01T09:38:58;24.80;;;8.25;;
45136;SDS011;30894;51.740;19.498;2023-03-01T09:47:04;16.45;;;7.75;;
45136;SDS011;30894;51.740;19.498;2023-03-01T09:49:53;19.45;;;7.15;;
45136;SDS011;30894;51.740;19.498;2023-03-01T09:52:58;16.00;;;8.23;;
45136;SDS011;30894;51.740;19.498;2023-03-01T10:01:30;16.25;;;7.22;;
45136;SDS011;30894;51.740;19.498;2023-03-01T10:04:12;18.02;;;8.50;;
45136;SDS011;30894;51.740;19.498;2023-03-01T10:07:01;14.70;;;6.20;;
45136;SDS011;30894;51.740;19.498;2023-03-01T10:09:46;21.77;;;8.23;;
45136;SDS011;30894;51.740;19.498;2023-03-01T10:12:15;18.73;;;7.03;;
45136;SDS011;30894;51.740;19.498;2023-03-01T10:14:57;12.25;;;5.95;;
45136;SDS011;30894;51.740;19.498;2023-03-01T10:17:57;13.75;;;5.15;;
45136;SDS011;30894;51.740;19.498;2023-03-01T10:20:46;19.65;;;7.75;;
45136;SDS011;30894;51.740;19.498;2023-03-01T10:23:23;15.98;;;6.38;;
45136;SDS011;30894;51.740;19.498;2023-03-01T10:26:02;11.05;;;3.70;;
45136;SDS011;30894;51.740;19.498;2023-03-01T10:28:50;10.80;;;4.15;;
45136;SDS011;30894;51.740;19.498;2023-03-01T10:31:32;9.88;;;4.57;;
45136;SDS011;30894;51.740;19.498;2023-03-01T10:36:47;8.13;;;3.30;;
45136;SDS011;30894;51.740;19.498;2023-03-01T10:39:19;10.52;;;3.88;;
45136;SDS011;30894;51.740;19.498;2023-03-01T10:41:54;7.72;;;3.50;;
45136;SDS011;30894;51.740;19.498;2023-03-01T11:01:34;11.82;;;4.60;;
45136;SDS011;30894;51.740;19.498;2023-03-01T11:06:34;11.00;;;4.78;;
45136;SDS011;30894;51.740;19.498;2023-03-01T11:09:19;8.77;;;3.95;;
45136;SDS011;30894;51.740;19.498;2023-03-01T11:11:51;6.80;;;3.40;;
45136;SDS011;30894;51.740;19.498;2023-03-01T11:14:21;8.13;;;3.60;;
45136;SDS011;30894;51.740;19.498;2023-03-01T11:16:59;7.50;;;4.25;;
45136;SDS011;30894;51.740;19.498;2023-03-01T11:19:59;14.00;;;5.20;;
45136;SDS011;30894;51.740;19.498;2023-03-01T11:22:50;9.38;;;4.25;;
45136;SDS011;30894;51.740;19.498;2023-03-01T11:25:46;11.40;;;4.35;;
45136;SDS011;30894;51.740;19.498;2023-03-01T11:28:29;11.40;;;4.65;;
45136;SDS011;30894;51.740;19.498;2023-03-01T11:31:00;12.10;;;5.40;;
45136;SDS011;30894;51.740;19.498;2023-03-01T11:33:50;11.60;;;4.57;;
45136;SDS011;30894;51.740;19.498;2023-03-01T11:37:09;6.35;;;3.72;;
45136;SDS011;30894;51.740;19.498;2023-03-01T11:40:11;8.80;;;3.75;;
45136;SDS011;30894;51.740;19.498;2023-03-01T11:46:32;11.50;;;4.47;;
45136;SDS011;30894;51.740;19.498;2023-03-01T12:06:56;8.07;;;4.25;;
45136;SDS011;30894;51.740;19.498;2023-03-01T12:15:54;13.98;;;4.88;;
45136;SDS011;30894;51.740;19.498;2023-03-01T12:21:30;10.50;;;4.72;;
45136;SDS011;30894;51.740;19.498;2023-03-01T12:27:47;9.27;;;4.78;;
45136;SDS011;30894;51.740;19.498;2023-03-01T12:40:14;16.33;;;6.28;;
45136;SDS011;30894;51.740;19.498;2023-03-01T12:43:26;16.15;;;6.30;;
45136;SDS011;30894;51.740;19.498;2023-03-01T12:51:53;19.00;;;7.30;;
45136;SDS011;30894;51.740;19.498;2023-03-01T12:54:44;16.67;;;7.10;;
45136;SDS011;30894;51.740;19.498;2023-03-01T12:57:20;16.92;;;6.78;;
45136;SDS011;30894;51.740;19.498;2023-03-01T13:00:06;14.63;;;6.30;;
45136;SDS011;30894;51.740;19.498;2023-03-01T13:03:13;10.82;;;5.20;;
45136;SDS011;30894;51.740;19.498;2023-03-01T13:06:25;12.38;;;5.25;;
45136;SDS011;30894;51.740;19.498;2023-03-01T13:08:59;10.95;;;5.60;;
45136;SDS011;30894;51.740;19.498;2023-03-01T13:11:35;17.60;;;6.57;;
45136;SDS011;30894;51.740;19.498;2023-03-01T13:16:54;16.30;;;6.18;;
45136;SDS011;30894;51.740;19.498;2023-03-01T13:20:00;13.60;;;5.68;;
45136;SDS011;30894;51.740;19.498;2023-03-01T13:23:03;11.48;;;5.80;;
45136;SDS011;30894;51.740;19.498;2023-03-01T13:25:32;15.23;;;6.15;;
45136;SDS011;30894;51.740;19.498;2023-03-01T13:33:46;11.88;;;5.53;;
45136;SDS011;30894;51.740;19.498;2023-03-01T13:38:59;13.10;;;5.60;;
45136;SDS011;30894;51.740;19.498;2023-03-01T13:47:03;11.32;;;5.45;;
45136;SDS011;30894;51.740;19.498;2023-03-01T13:49:46;17.48;;;6.93;;
45136;SDS011;30894;51.740;19.498;2023-03-01T13:52:34;17.90;;;6.72;;
45136;SDS011;30894;51.740;19.498;2023-03-01T13:55:44;14.50;;;6.63;;
45136;SDS011;30894;51.740;19.498;2023-03-01T13:58:25;17.52;;;6.88;;
45136;SDS011;30894;51.740;19.498;2023-03-01T14:01:25;17.77;;;7.78;;
45136;SDS011;30894;51.740;19.498;2023-03-01T14:07:22;22.98;;;8.80;;
45136;SDS011;30894;51.740;19.498;2023-03-01T14:10:02;25.02;;;8.40;;
45136;SDS011;30894;51.740;19.498;2023-03-01T14:13:46;18.95;;;8.48;;
45136;SDS011;30894;51.740;19.498;2023-03-01T14:18:59;23.20;;;9.15;;
45136;SDS011;30894;51.740;19.498;2023-03-01T14:24:51;23.80;;;9.50;;
45136;SDS011;30894;51.740;19.498;2023-03-01T14:27:56;22.30;;;9.32;;
45136;SDS011;30894;51.740;19.498;2023-03-01T14:34:18;26.00;;;9.23;;
45136;SDS011;30894;51.740;19.498;2023-03-01T14:40:21;26.65;;;9.07;;
45136;SDS011;30894;51.740;19.498;2023-03-01T14:43:17;24.73;;;9.23;;
45136;SDS011;30894;51.740;19.498;2023-03-01T14:45:47;25.63;;;9.00;;
45136;SDS011;30894;51.740;19.498;2023-03-01T14:48:24;25.17;;;9.68;;
45136;SDS011;30894;51.740;19.498;2023-03-01T14:53:38;26.88;;;9.20;;
45136;SDS011;30894;51.740;19.498;2023-03-01T14:56:26;23.13;;;9.73;;
45136;SDS011;30894;51.740;19.498;2023-03-01T14:59:09;20.15;;;8.98;;
45136;SDS011;30894;51.740;19.498;2023-03-01T15:01:40;21.95;;;9.55;;
45136;SDS011;30894;51.740;19.498;2023-03-01T15:04:11;22.08;;;8.77;;
45136;SDS011;30894;51.740;19.498;2023-03-01T15:06:46;19.58;;;8.70;;
45136;SDS011;30894;51.740;19.498;2023-03-01T15:09:29;18.20;;;7.95;;
45136;SDS011;30894;51.740;19.498;2023-03-01T15:12:23;21.05;;;9.10;;
45136;SDS011;30894;51.740;19.498;2023-03-01T15:14:56;23.35;;;7.88;;
45136;SDS011;30894;51.740;19.498;2023-03-01T15:17:54;21.17;;;8.85;;
45136;SDS011;30894;51.740;19.498;2023-03-01T15:20:52;22.13;;;8.65;;
45136;SDS011;30894;51.740;19.498;2023-03-01T15:23:25;21.20;;;8.73;;
45136;SDS011;30894;51.740;19.498;2023-03-01T15:26:02;19.35;;;8.10;;
45136;SDS011;30894;51.740;19.498;2023-03-01T15:28:59;24.48;;;9.32;;
45136;SDS011;30894;51.740;19.498;2023-03-01T15:31:28;18.60;;;8.27;;
45136;SDS011;30894;51.740;19.498;2023-03-01T15:34:36;22.27;;;7.72;;
45136;SDS011;30894;51.740;19.498;2023-03-01T15:40:22;25.23;;;8.70;;
45136;SDS011;30894;51.740;19.498;2023-03-01T15:43:04;22.88;;;8.02;;
45136;SDS011;30894;51.740;19.498;2023-03-01T15:45:55;24.48;;;8.85;;
45136;SDS011;30894;51.740;19.498;2023-03-01T15:48:36;24.05;;;9.20;;
45136;SDS011;30894;51.740;19.498;2023-03-01T15:51:11;27.55;;;8.75;;
45136;SDS011;30894;51.740;19.498;2023-03-01T15:53:40;25.08;;;9.77;;
45136;SDS011;30894;51.740;19.498;2023-03-01T15:56:26;25.33;;;9.02;;
45136;SDS011;30894;51.740;19.498;2023-03-01T15:59:01;26.17;;;9.35;;
45136;SDS011;30894;51.740;19.498;2023-03-01T16:01:28;23.83;;;9.07;;
45136;SDS011;30894;51.740;19.498;2023-03-01T16:04:02;19.15;;;7.70;;
45136;SDS011;30894;51.740;19.498;2023-03-01T16:06:32;24.42;;;9.07;;
45136;SDS011;30894;51.740;19.498;2023-03-01T16:09:04;21.42;;;7.90;;
45136;SDS011;30894;51.740;19.498;2023-03-01T16:11:34;22.40;;;7.85;;
45136;SDS011;30894;51.740;19.498;2023-03-01T16:14:04;19.77;;;7.90;;
45136;SDS011;30894;51.740;19.498;2023-03-01T16:16:31;27.20;;;9.10;;
45136;SDS011;30894;51.740;19.498;2023-03-01T16:19:09;26.55;;;9.68;;
45136;SDS011;30894;51.740;19.498;2023-03-01T16:21:38;29.00;;;9.60;;
45136;SDS011;30894;51.740;19.498;2023-03-01T16:24:04;29.33;;;10.05;;
45136;SDS011;30894;51.740;19.498;2023-03-01T16:26:37;24.75;;;8.95;;
45136;SDS011;30894;51.740;19.498;2023-03-01T16:29:13;24.98;;;8.20;;
45136;SDS011;30894;51.740;19.498;2023-03-01T16:31:48;19.85;;;7.53;;
45136;SDS011;30894;51.740;19.498;2023-03-01T16:34:17;19.23;;;7.95;;
45136;SDS011;30894;51.740;19.498;2023-03-01T16:36:50;22.10;;;8.23;;
45136;SDS011;30894;51.740;19.498;2023-03-01T16:39:18;20.30;;;8.68;;
45136;SDS011;30894;51.740;19.498;2023-03-01T16:41:51;24.35;;;8.85;;
45136;SDS011;30894;51.740;19.498;2023-03-01T16:44:24;20.75;;;7.68;;
45136;SDS011;30894;51.740;19.498;2023-03-01T16:46:53;18.45;;;7.43;;
45136;SDS011;30894;51.740;19.498;2023-03-01T16:49:20;24.85;;;8.30;;
45136;SDS011;30894;51.740;19.498;2023-03-01T16:51:57;23.48;;;8.05;;
45136;SDS011;30894;51.740;19.498;2023-03-01T16:54:27;23.58;;;9.55;;
45136;SDS011;30894;51.740;19.498;2023-03-01T16:56:58;23.60;;;9.18;;
45136;SDS011;30894;51.740;19.498;2023-03-01T16:59:33;21.83;;;9.27;;
45136;SDS011;30894;51.740;19.498;2023-03-01T17:02:00;20.98;;;8.57;;
45136;SDS011;30894;51.740;19.498;2023-03-01T17:04:35;32.72;;;10.95;;
45136;SDS011;30894;51.740;19.498;2023-03-01T17:07:03;21.65;;;8.57;;
45136;SDS011;30894;51.740;19.498;2023-03-01T17:09:37;23.77;;;8.85;;
45136;SDS011;30894;51.740;19.498;2023-03-01T17:12:07;19.67;;;9.30;;
45136;SDS011;30894;51.740;19.498;2023-03-01T17:14:43;23.95;;;9.98;;
45136;SDS011;30894;51.740;19.498;2023-03-01T17:17:11;24.95;;;10.15;;